createdAt,value
2023-05-05T00:00:30.255Z,95441.16
2023-05-05T00:03:12.828Z,95452.97
2023-05-05T00:05:40.679Z,95433.38
2023-05-05T00:08:08.484Z,95440.94
2023-05-05T00:10:36.783Z,95434.78
2023-05-05T00:13:05.092Z,95425.50
2023-05-05T00:15:33.100Z,95433.94
2023-05-05T00:18:00.464Z,95439.59
2023-05-05T00:20:28.213Z,95433.94
2023-05-05T00:22:55.363Z,95439.03
2023-05-05T00:25:22.943Z,95443.66
2023-05-05T00:27:50.739Z,95444.75
2023-05-05T00:30:18.620Z,95444.03
2023-05-05T00:32:48.825Z,95445.84
2023-05-05T00:35:17.979Z,95434.19
2023-05-05T00:37:45.254Z,95423.19
2023-05-05T00:40:13.416Z,95435.94
2023-05-05T00:42:49.287Z,95420.63
2023-05-05T00:45:18.453Z,95435.13
2023-05-05T00:47:49.103Z,95435.53
2023-05-05T00:50:24.626Z,95431.78
2023-05-05T00:52:55.255Z,95436.59
2023-05-05T00:55:23.861Z,95422.03
2023-05-05T00:57:51.342Z,95434.22
2023-05-05T01:00:19.100Z,95425.06
2023-05-05T01:02:46.377Z,95427.94
2023-05-05T01:05:16.522Z,95422.25
2023-05-05T01:07:55.481Z,95412.97
2023-05-05T01:10:38.608Z,95423.53
2023-05-05T01:13:05.764Z,95428.47
2023-05-05T01:15:48.742Z,95414.75
2023-05-05T01:18:41.794Z,95421.66
2023-05-05T01:21:17.168Z,95424.09
2023-05-05T01:23:56.521Z,95422.25
2023-05-05T01:26:42.920Z,95427.22
2023-05-05T01:29:54.510Z,95418.13
2023-05-05T01:32:31.906Z,95418.88
2023-05-05T01:35:08.432Z,95406.47
2023-05-05T01:37:53.410Z,95410.59
2023-05-05T01:40:26.202Z,95422.03
2023-05-05T01:42:55.942Z,95415.47
2023-05-05T01:45:26.745Z,95396.38
2023-05-05T01:48:00.279Z,95413.03
2023-05-05T01:50:29.351Z,95413.53
2023-05-05T01:55:31.178Z,95414.16
2023-05-05T01:58:01.362Z,95411.22
2023-05-05T02:00:29.371Z,95411.59
2023-05-05T02:03:00.129Z,95416.19
2023-05-05T02:05:28.613Z,95418.34
2023-05-05T02:07:59.172Z,95415.63
2023-05-05T02:10:27.872Z,95413.91
2023-05-05T02:12:57.274Z,95416.50
2023-05-05T02:15:27.335Z,95412.63
2023-05-05T02:17:56.342Z,95411.75
2023-05-05T02:20:25.005Z,95405.19
2023-05-05T02:22:54.056Z,95409.72
2023-05-05T02:25:23.885Z,95403.75
2023-05-05T02:27:57.107Z,95405.66
2023-05-05T02:30:25.597Z,95405.59
2023-05-05T02:33:04.840Z,95409.91
2023-05-05T02:35:39.224Z,95399.88
2023-05-05T02:38:17.525Z,95404.72
2023-05-05T02:40:50.022Z,95411.78
2023-05-05T02:43:22.072Z,95412.63
2023-05-05T02:45:49.541Z,95413.81
2023-05-05T02:48:18.386Z,95410.44
2023-05-05T02:50:45.623Z,95416.06
2023-05-05T02:53:29.493Z,95420.25
2023-05-05T02:56:08.182Z,95420.84
2023-05-05T02:58:51.172Z,95426.19
2023-05-05T03:02:04.492Z,95425.63
2023-05-05T03:04:43.030Z,95424.88
2023-05-05T03:07:15.955Z,95418.38
2023-05-05T03:10:08.822Z,95428.97
2023-05-05T03:12:46.991Z,95426.78
2023-05-05T03:15:26.648Z,95436.81
2023-05-05T03:17:54.807Z,95432.38
2023-05-05T03:20:23.232Z,95418.00
2023-05-05T03:22:52.072Z,95431.03
2023-05-05T03:25:19.668Z,95429.63
2023-05-05T03:27:48.017Z,95420.88
2023-05-05T03:30:20.455Z,95433.69
2023-05-05T03:32:51.095Z,95435.88
2023-05-05T03:35:18.750Z,95435.69
2023-05-05T03:37:46.135Z,95433.66
2023-05-05T03:40:16.485Z,95435.88
2023-05-05T03:42:43.843Z,95437.78
2023-05-05T03:45:11.559Z,95436.13
2023-05-05T03:47:39.976Z,95431.19
2023-05-05T03:50:09.024Z,95434.22
2023-05-05T03:52:36.723Z,95438.63
2023-05-05T03:55:05.237Z,95430.25
2023-05-05T03:57:34.276Z,95441.19
2023-05-05T04:00:02.018Z,95439.34
2023-05-05T04:02:30.477Z,95422.06
2023-05-05T04:04:58.236Z,95435.88
2023-05-05T04:07:25.869Z,95439.59
2023-05-05T04:09:53.699Z,95436.78
2023-05-05T04:12:21.055Z,95444.25
2023-05-05T04:14:48.635Z,95445.22
2023-05-05T04:17:16.422Z,95443.34
2023-05-05T04:19:44.653Z,95438.22
2023-05-05T04:22:11.897Z,95441.63
2023-05-05T04:24:39.737Z,95458.47
2023-05-05T04:27:07.237Z,95453.72
2023-05-05T04:29:35.701Z,95421.78
2023-05-05T04:32:03.369Z,95450.97
2023-05-05T04:34:31.217Z,95448.53
2023-05-05T04:36:58.599Z,95449.53
2023-05-05T04:39:26.456Z,95463.91
2023-05-05T04:41:54.064Z,95457.88
2023-05-05T04:44:21.737Z,95467.44
2023-05-05T04:46:49.290Z,95464.34
2023-05-05T04:49:17.022Z,95457.69
2023-05-05T04:51:44.866Z,95455.88
2023-05-05T04:54:12.566Z,95449.34
2023-05-05T04:56:39.842Z,95447.81
2023-05-05T04:59:07.838Z,95449.50
2023-05-05T05:01:37.730Z,95457.19
2023-05-05T05:04:06.116Z,95439.06
2023-05-05T05:06:33.599Z,95455.75
2023-05-05T05:09:01.071Z,95440.91
2023-05-05T05:11:29.324Z,95452.22
2023-05-05T05:13:57.026Z,95454.22
2023-05-05T05:16:25.458Z,95450.75
2023-05-05T05:18:53.466Z,95452.50
2023-05-05T05:21:21.269Z,95448.44
2023-05-05T05:23:49.275Z,95431.41
2023-05-05T05:26:16.880Z,95448.06
2023-05-05T05:28:44.890Z,95433.44
2023-05-05T05:31:12.671Z,95444.66
2023-05-05T05:33:40.332Z,95432.66
2023-05-05T05:36:08.170Z,95428.81
2023-05-05T05:38:36.535Z,95441.47
2023-05-05T05:41:06.865Z,95424.19
2023-05-05T05:43:36.033Z,95429.94
2023-05-05T05:46:05.031Z,95425.56
2023-05-05T05:48:34.236Z,95425.91
2023-05-05T05:51:02.660Z,95422.03
2023-05-05T05:53:30.439Z,95412.47
2023-05-05T05:55:57.772Z,95428.00
2023-05-05T05:58:25.637Z,95423.28
2023-05-05T06:00:53.124Z,95424.44
2023-05-05T06:03:21.239Z,95422.91
2023-05-05T06:05:48.542Z,95425.28
2023-05-05T06:08:16.490Z,95418.06
2023-05-05T06:10:48.510Z,95399.66
2023-05-05T06:13:19.617Z,95408.78
2023-05-05T06:15:50.102Z,95409.59
2023-05-05T06:18:18.685Z,95415.63
2023-05-05T06:20:49.549Z,95413.78
2023-05-05T06:23:18.607Z,95411.81
2023-05-05T06:25:51.800Z,95404.94
2023-05-05T06:28:19.546Z,95417.97
2023-05-05T06:30:46.780Z,95403.00
2023-05-05T06:33:14.461Z,95419.75
2023-05-05T06:35:41.698Z,95417.94
2023-05-05T06:38:09.947Z,95415.53
2023-05-05T06:40:37.058Z,95416.38
2023-05-05T06:43:04.861Z,95407.56
2023-05-05T06:45:36.877Z,95405.41
2023-05-05T06:48:04.764Z,95400.03
2023-05-05T06:50:32.262Z,95409.19
2023-05-05T06:52:59.861Z,95405.66
2023-05-05T06:55:27.403Z,95410.75
2023-05-05T06:57:55.264Z,95412.31
2023-05-05T07:00:23.260Z,95404.66
2023-05-05T07:02:50.793Z,95404.19
2023-05-05T07:05:18.609Z,95415.31
2023-05-05T07:07:56.666Z,95391.81
2023-05-05T08:00:13.715Z,95362.66
2023-05-05T08:02:41.861Z,95365.97
2023-05-05T08:05:09.812Z,95360.44
2023-05-05T08:07:41.671Z,95356.41
2023-05-05T08:10:11.059Z,95346.91
2023-05-05T08:12:39.103Z,95349.56
2023-05-05T08:15:07.160Z,95339.94
2023-05-05T08:17:49.504Z,95341.28
2023-05-05T08:20:21.638Z,95340.16
2023-05-05T08:22:49.916Z,95342.47
2023-05-05T08:25:17.131Z,95341.97
2023-05-05T08:27:45.142Z,95340.22
2023-05-05T08:30:12.614Z,95344.91
2023-05-05T08:32:40.621Z,95340.88
2023-05-05T08:35:08.692Z,95341.88
2023-05-05T08:37:36.653Z,95341.53
2023-05-05T08:40:04.740Z,95339.31
2023-05-05T08:42:37.073Z,95324.25
2023-05-05T08:45:10.663Z,95340.88
2023-05-05T08:47:42.468Z,95323.78
2023-05-05T08:50:11.662Z,95324.13
2023-05-05T08:52:44.125Z,95333.88
2023-05-05T08:55:18.153Z,95321.53
2023-05-05T08:57:55.167Z,95326.81
2023-05-05T09:00:23.386Z,95327.03
2023-05-05T09:02:51.389Z,95320.19
2023-05-05T09:05:18.908Z,95313.28
2023-05-05T09:07:47.616Z,95316.69
2023-05-05T09:10:15.707Z,95305.06
2023-05-05T09:12:43.829Z,95305.06
2023-05-05T09:15:15.196Z,95305.34
2023-05-05T09:17:43.841Z,95308.94
2023-05-05T09:20:13.430Z,95305.69
2023-05-05T09:22:46.958Z,95298.88
2023-05-05T09:25:16.907Z,95302.84
2023-05-05T09:27:49.417Z,95302.16
2023-05-05T09:30:23.528Z,95296.22
2023-05-05T09:32:54.159Z,95288.91
2023-05-05T09:35:23.386Z,95293.00
2023-05-05T09:37:51.817Z,95287.75
2023-05-05T09:40:20.820Z,95283.72
2023-05-05T09:42:48.966Z,95286.75
2023-05-05T09:45:19.526Z,95284.06
2023-05-05T09:47:49.477Z,95283.19
2023-05-05T09:50:20.761Z,95280.09
2023-05-05T09:53:02.319Z,95280.66
2023-05-05T09:55:34.296Z,95274.22
2023-05-05T09:58:20.399Z,95277.53
2023-05-05T10:00:48.603Z,95267.66
2023-05-05T10:03:17.966Z,95270.19
2023-05-05T10:05:54.960Z,95249.53
2023-05-05T10:08:24.850Z,95270.19
2023-05-05T10:10:55.281Z,95260.84
2023-05-05T10:13:25.181Z,95274.22
2023-05-05T10:15:54.364Z,95261.03
2023-05-05T10:18:27.185Z,95259.44
2023-05-05T10:21:00.057Z,95267.91
2023-05-05T10:23:50.968Z,95266.84
2023-05-05T10:26:20.290Z,95259.53
2023-05-05T10:28:51.853Z,95246.06
2023-05-05T10:31:41.931Z,95259.19
2023-05-05T10:34:11.362Z,95246.53
2023-05-05T10:36:39.602Z,95239.25
2023-05-05T10:39:09.580Z,95230.06
2023-05-05T10:41:38.038Z,95235.78
2023-05-05T10:44:06.946Z,95229.44
2023-05-05T10:46:34.226Z,95235.06
2023-05-05T10:49:19.026Z,95223.22
2023-05-05T10:51:54.568Z,95221.97
2023-05-05T10:54:31.255Z,95224.88
2023-05-05T10:57:05.036Z,95231.97
2023-05-05T10:59:39.052Z,95220.44
2023-05-05T11:02:28.433Z,95215.81
2023-05-05T11:05:21.759Z,95213.19
2023-05-05T11:07:51.709Z,95214.00
2023-05-05T11:10:21.284Z,95207.91
2023-05-05T11:13:03.400Z,95204.81
2023-05-05T11:15:30.899Z,95198.06
2023-05-05T11:18:05.699Z,95207.63
2023-05-05T11:20:37.725Z,95202.00
2023-05-05T11:23:08.174Z,95207.03
2023-05-05T11:25:41.575Z,95198.00
2023-05-05T11:28:12.830Z,95196.94
2023-05-05T11:30:56.137Z,95190.16
2023-05-05T11:33:37.393Z,95187.47
2023-05-05T11:36:18.833Z,95185.69
2023-05-05T11:39:27.688Z,95185.06
2023-05-05T11:41:58.233Z,95187.31
2023-05-05T11:44:33.647Z,95183.47
2023-05-05T11:47:04.526Z,95185.50
2023-05-05T11:49:36.603Z,95173.66
2023-05-05T11:52:12.601Z,95181.03
2023-05-05T11:54:51.602Z,95182.66
2023-05-05T11:57:21.914Z,95176.06
2023-05-05T11:59:51.259Z,95174.66
2023-05-05T12:02:20.128Z,95177.06
2023-05-05T12:04:48.150Z,95181.19
2023-05-05T12:07:17.197Z,95171.94
2023-05-05T12:09:45.993Z,95170.44
2023-05-05T12:12:14.682Z,95162.28
2023-05-05T12:14:52.098Z,95161.84
2023-05-05T12:17:21.637Z,95167.59
2023-05-05T12:19:53.004Z,95163.44
2023-05-05T12:22:22.837Z,95168.47
2023-05-05T12:24:55.096Z,95172.44
2023-05-05T12:27:23.362Z,95171.56
2023-05-05T12:29:51.712Z,95171.13
2023-05-05T12:32:27.965Z,95177.69
2023-05-05T12:34:57.740Z,95176.38
2023-05-05T12:37:27.709Z,95176.47
2023-05-05T12:39:57.792Z,95166.34
2023-05-05T12:42:25.515Z,95173.34
2023-05-05T12:44:53.161Z,95173.59
2023-05-05T12:47:32.262Z,95169.03
2023-05-05T12:50:00.808Z,95159.47
2023-05-05T12:52:44.954Z,95162.44
2023-05-05T12:55:13.525Z,95159.41
2023-05-05T12:58:01.625Z,95152.00
2023-05-05T13:00:29.497Z,95147.03
2023-05-05T13:02:58.241Z,95146.72
2023-05-05T13:05:33.516Z,95145.28
2023-05-05T13:08:02.256Z,95136.94
2023-05-05T13:10:32.617Z,95117.19
2023-05-05T13:13:00.639Z,95133.03
2023-05-05T13:15:30.804Z,95124.88
2023-05-05T13:18:01.463Z,95101.16
2023-05-05T13:20:28.970Z,95121.19
2023-05-05T13:22:57.461Z,95117.69
2023-05-05T13:25:24.849Z,95106.13
2023-05-05T13:27:52.524Z,95106.97
2023-05-05T13:30:20.933Z,95108.63
2023-05-05T13:32:48.514Z,95104.16
2023-05-05T13:35:16.699Z,95109.19
2023-05-05T13:37:46.260Z,95105.31
2023-05-05T13:40:14.286Z,95101.28
2023-05-05T13:42:42.792Z,95095.66
2023-05-05T13:45:11.045Z,95097.91
2023-05-05T13:47:38.766Z,95098.22
2023-05-05T13:50:07.488Z,95084.28
2023-05-05T13:52:35.026Z,95097.56
2023-05-05T13:55:02.952Z,95095.97
2023-05-05T13:57:30.553Z,95088.44
2023-05-05T13:59:57.682Z,95087.38
2023-05-05T14:02:25.349Z,95078.31
2023-05-05T14:04:52.784Z,95075.63
2023-05-05T14:07:20.440Z,95077.56
2023-05-05T14:09:47.771Z,95071.47
2023-05-05T14:12:17.350Z,95077.78
2023-05-05T14:14:45.032Z,95071.75
2023-05-05T14:17:12.997Z,95071.47
2023-05-05T14:19:41.115Z,95074.69
2023-05-05T14:22:08.586Z,95072.66
2023-05-05T14:24:36.386Z,95057.81
2023-05-05T14:27:04.916Z,95069.25
2023-05-05T14:29:32.811Z,95056.06
2023-05-05T14:32:00.699Z,95072.31
2023-05-05T14:34:28.280Z,95056.59
2023-05-05T14:36:55.574Z,95069.56
2023-05-05T14:39:23.785Z,95060.44
2023-05-05T14:41:51.287Z,95062.41
2023-05-05T14:44:19.034Z,95054.53
2023-05-05T14:46:46.858Z,95066.28
2023-05-05T14:49:16.126Z,95066.31
2023-05-05T14:51:44.187Z,95044.63
2023-05-05T14:54:24.300Z,95054.72
2023-05-05T14:56:55.656Z,95060.44
2023-05-05T14:59:23.314Z,95048.38
2023-05-05T15:01:51.098Z,95041.50
2023-05-05T15:04:18.779Z,95046.41
2023-05-05T15:06:46.229Z,95042.19
2023-05-05T15:09:13.834Z,95046.47
2023-05-05T15:11:45.506Z,95048.34
2023-05-05T15:14:13.070Z,95045.56
2023-05-05T15:16:40.424Z,95058.56
2023-05-05T15:19:08.034Z,95050.47
2023-05-05T15:21:35.215Z,95046.94
2023-05-05T15:24:02.882Z,95033.63
2023-05-05T15:26:30.096Z,95037.22
2023-05-05T15:28:57.633Z,95050.84
2023-05-05T15:31:24.930Z,95049.06
2023-05-05T15:33:52.530Z,95050.66
2023-05-05T15:36:22.810Z,95051.19
2023-05-05T15:38:50.383Z,95053.47
2023-05-05T15:41:17.676Z,95055.31
2023-05-05T15:43:45.376Z,95067.63
2023-05-05T15:46:12.617Z,95053.72
2023-05-05T15:48:40.267Z,95058.56
2023-05-05T15:51:07.457Z,95060.03
2023-05-05T15:53:35.163Z,95066.38
2023-05-05T15:56:02.840Z,95069.31
2023-05-05T15:58:30.420Z,95074.25
2023-05-05T16:00:57.665Z,95072.06
2023-05-05T16:03:25.294Z,95080.13
2023-05-05T16:05:52.685Z,95080.88
2023-05-05T16:08:20.209Z,95071.56
2023-05-05T16:10:47.416Z,95072.91
2023-05-05T16:13:15.333Z,95078.09
2023-05-05T16:15:42.727Z,95083.25
2023-05-05T16:18:10.441Z,95074.31
2023-05-05T16:20:37.824Z,95070.09
2023-05-05T16:23:05.675Z,95077.31
2023-05-05T16:25:32.996Z,95080.91
2023-05-05T16:28:01.825Z,95088.50
2023-05-05T16:30:29.547Z,95084.81
2023-05-05T16:32:57.075Z,95087.56
2023-05-05T16:35:24.313Z,95091.94
2023-05-05T16:37:52.723Z,95099.44
2023-05-05T16:40:20.075Z,95101.03
2023-05-05T16:42:47.953Z,95094.78
2023-05-05T16:45:15.161Z,95099.75
2023-05-05T16:47:42.738Z,95098.09
2023-05-05T16:50:10.259Z,95094.75
2023-05-05T16:52:37.904Z,95090.63
2023-05-05T16:55:05.978Z,95091.03
2023-05-05T16:57:33.784Z,95098.53
2023-05-05T17:00:01.046Z,95089.47
2023-05-05T17:02:28.627Z,95100.13
2023-05-05T17:04:55.910Z,95103.25
2023-05-05T17:07:23.561Z,95102.50
2023-05-05T17:09:51.245Z,95111.81
2023-05-05T17:12:18.887Z,95115.56
2023-05-05T17:21:25.137Z,95137.88
2023-05-05T17:23:52.664Z,95126.84
2023-05-05T17:26:19.908Z,95137.56
2023-05-05T17:28:47.438Z,95145.91
2023-05-05T17:31:14.847Z,95138.69
2023-05-05T17:33:42.519Z,95141.72
2023-05-05T17:36:10.148Z,95141.22
2023-05-05T17:38:37.863Z,95150.47
2023-05-05T17:41:05.110Z,95138.44
2023-05-05T17:43:32.677Z,95153.75
2023-05-05T17:45:59.993Z,95163.56
2023-05-05T17:48:27.918Z,95149.31
2023-05-05T17:50:55.338Z,95151.63
2023-05-05T17:53:23.678Z,95161.84
2023-05-05T17:55:50.959Z,95167.84
2023-05-05T17:58:18.587Z,95168.44
2023-05-05T18:00:46.662Z,95164.84
2023-05-05T18:03:14.784Z,95162.03
2023-05-05T18:05:42.289Z,95179.53
2023-05-05T18:08:09.905Z,95174.69
2023-05-05T18:10:37.376Z,95186.03
2023-05-05T18:13:05.129Z,95180.84
2023-05-05T18:15:32.458Z,95173.91
2023-05-05T18:18:00.491Z,95175.34
2023-05-05T18:20:27.785Z,95179.69
2023-05-05T18:22:55.712Z,95186.81
2023-05-05T18:25:23.691Z,95175.81
2023-05-05T18:27:51.376Z,95194.47
2023-05-05T18:30:18.712Z,95190.16
2023-05-05T18:32:46.490Z,95200.59
2023-05-05T18:35:14.656Z,95194.53
2023-05-05T18:37:42.833Z,95206.72
2023-05-05T18:40:10.849Z,95209.28
2023-05-05T18:42:38.593Z,95203.44
2023-05-05T18:45:07.559Z,95208.59
2023-05-05T18:47:39.166Z,95206.59
2023-05-05T18:50:08.648Z,95204.75
2023-05-05T18:52:38.098Z,95216.25
2023-05-05T18:55:05.813Z,95214.88
2023-05-05T18:57:33.371Z,95209.00
2023-05-05T19:00:01.258Z,95228.22
2023-05-05T19:02:28.963Z,95237.34
2023-05-05T19:04:56.423Z,95230.84
2023-05-05T19:07:34.409Z,95231.31
2023-05-05T19:10:04.947Z,95237.38
2023-05-05T19:12:33.813Z,95208.63
2023-05-05T19:15:01.475Z,95218.56
2023-05-05T19:17:29.223Z,95235.28
2023-05-05T19:19:57.984Z,95236.72
2023-05-05T19:22:25.830Z,95230.56
2023-05-05T19:24:53.109Z,95225.59
2023-05-05T19:27:20.685Z,95212.19
2023-05-05T19:29:52.335Z,95233.19
2023-05-05T19:32:21.245Z,95227.06
2023-05-05T19:34:48.977Z,95229.31
2023-05-05T19:37:16.718Z,95231.78
2023-05-05T19:39:45.880Z,95227.84
2023-05-05T19:42:13.963Z,95224.94
2023-05-05T19:44:41.184Z,95231.94
2023-05-05T19:47:10.880Z,95222.25
2023-05-05T19:49:38.458Z,95221.28
2023-05-05T19:52:06.173Z,95233.66
2023-05-05T19:54:33.477Z,95236.94
2023-05-05T19:57:01.062Z,95228.34
2023-05-05T19:59:28.345Z,95227.28
2023-05-05T20:01:55.986Z,95212.53
2023-05-05T20:04:23.353Z,95204.81
2023-05-05T20:06:51.189Z,95207.78
2023-05-05T20:09:18.820Z,95222.31
2023-05-05T20:11:49.250Z,95220.69
2023-05-05T20:14:16.524Z,95221.50
2023-05-05T20:16:46.660Z,95212.38
2023-05-05T20:19:14.090Z,95217.47
2023-05-05T20:21:41.866Z,95216.16
2023-05-05T20:24:10.631Z,95222.59
2023-05-05T20:26:41.574Z,95215.59
2023-05-05T20:29:08.820Z,95200.31
2023-05-05T20:31:36.551Z,95222.06
2023-05-05T20:34:04.027Z,95208.06
2023-05-05T20:36:32.070Z,95205.41
2023-05-05T20:38:59.503Z,95207.81
2023-05-05T20:41:27.177Z,95200.56
2023-05-05T20:43:54.449Z,95194.13
2023-05-05T20:46:22.000Z,95216.41
2023-05-05T20:48:49.305Z,95212.66
2023-05-05T20:51:17.204Z,95196.78
2023-05-05T20:53:44.403Z,95202.69
2023-05-05T20:56:11.951Z,95200.00
2023-05-05T20:58:39.085Z,95203.50
2023-05-05T21:01:06.789Z,95194.88
2023-05-05T21:03:34.237Z,95198.13
2023-05-05T21:06:02.132Z,95191.66
2023-05-05T21:08:30.268Z,95193.53
2023-05-05T21:10:57.802Z,95182.81
2023-05-05T21:13:25.266Z,95201.59
2023-05-05T21:15:52.880Z,95191.13
2023-05-05T21:18:20.350Z,95194.34
2023-05-05T21:20:47.908Z,95189.75
2023-05-05T21:23:15.120Z,95197.00
2023-05-05T21:25:42.812Z,95179.53
2023-05-05T21:28:10.126Z,95186.44
2023-05-05T21:30:38.320Z,95182.03
2023-05-05T21:33:05.573Z,95194.34
2023-05-05T21:35:33.248Z,95188.19
2023-05-05T21:38:00.756Z,95188.75
2023-05-05T21:40:28.366Z,95165.03
2023-05-05T21:42:55.748Z,95188.44
2023-05-05T21:45:23.741Z,95195.84
2023-05-05T21:47:51.106Z,95188.03
2023-05-05T21:50:18.705Z,95191.75
2023-05-05T21:52:45.936Z,95196.81
2023-05-05T21:55:13.528Z,95169.41
2023-05-05T21:57:40.726Z,95185.56
2023-05-05T22:00:09.324Z,95184.66
2023-05-05T22:02:45.665Z,95197.59
2023-05-05T22:05:13.489Z,95190.59
2023-05-05T22:07:40.909Z,95187.72
2023-05-05T22:10:09.347Z,95186.63
2023-05-05T22:12:39.341Z,95185.72
2023-05-05T22:15:08.670Z,95181.16
2023-05-05T22:17:36.448Z,95177.91
2023-05-05T22:20:09.390Z,95169.88
2023-05-05T22:22:36.864Z,95180.41
2023-05-05T22:25:05.314Z,95181.50
2023-05-05T22:27:32.556Z,95187.69
2023-05-05T22:30:00.221Z,95175.84
2023-05-05T22:32:27.471Z,95184.66
2023-05-05T22:34:55.107Z,95179.56
2023-05-05T22:37:22.769Z,95177.91
2023-05-05T22:39:50.448Z,95174.19
2023-05-05T22:42:17.624Z,95167.97
2023-05-05T22:44:45.271Z,95162.88
2023-05-05T22:47:14.977Z,95170.72
2023-05-05T22:49:42.735Z,95165.78
2023-05-05T22:52:09.960Z,95184.53
2023-05-05T22:54:37.424Z,95181.00
2023-05-05T22:57:04.606Z,95177.22
2023-05-05T22:59:32.268Z,95175.06
2023-05-05T23:01:59.481Z,95178.78
2023-05-05T23:04:27.000Z,95176.66
2023-05-05T23:06:55.283Z,95179.09
2023-05-05T23:09:24.344Z,95170.19
2023-05-05T23:11:51.450Z,95178.38
2023-05-05T23:14:19.735Z,95175.81
2023-05-05T23:16:47.026Z,95177.59
2023-05-05T23:19:17.812Z,95173.53
2023-05-05T23:21:52.612Z,95167.97
2023-05-05T23:24:21.864Z,95177.75
2023-05-05T23:26:49.172Z,95169.84
2023-05-05T23:29:16.676Z,95164.63
2023-05-05T23:31:43.877Z,95169.31
2023-05-05T23:34:11.641Z,95160.75
2023-05-05T23:36:38.780Z,95163.06
2023-05-05T23:39:06.538Z,95164.22
2023-05-05T23:41:33.837Z,95171.84
2023-05-05T23:44:01.407Z,95168.97
2023-05-05T23:46:29.406Z,95159.06
2023-05-05T23:49:00.164Z,95166.41
2023-05-05T23:51:27.850Z,95161.28
2023-05-05T23:53:57.341Z,95145.34
2023-05-05T23:56:24.780Z,95138.78
2023-05-05T23:58:53.580Z,95153.13
